createdAt,value
2023-03-23T00:01:11.506Z,10.5
2023-03-23T00:03:04.470Z,10.4
2023-03-23T00:05:03.516Z,10.4
2023-03-23T00:07:03.541Z,10.3
2023-03-23T00:09:04.033Z,10.4
2023-03-23T00:11:03.494Z,10.5
2023-03-23T00:13:04.257Z,10.6
2023-03-23T00:17:03.484Z,10.5
2023-03-23T00:19:03.530Z,10.4
2023-03-23T00:21:04.712Z,10.5
2023-03-23T00:23:03.493Z,10.6
2023-03-23T00:25:03.545Z,10.6
2023-03-23T00:29:03.518Z,10.7
2023-03-23T00:33:03.961Z,10.6
2023-03-23T00:35:03.544Z,10.6
2023-03-23T00:37:03.510Z,10.6
2023-03-23T00:39:04.562Z,10.6
2023-03-23T00:41:03.502Z,10.6
2023-03-23T00:43:03.492Z,10.6
2023-03-23T00:45:04.455Z,10.6
2023-03-23T00:47:03.491Z,10.6
2023-03-23T00:49:03.510Z,10.4
2023-03-23T00:51:04.020Z,10.3
2023-03-23T00:53:03.501Z,10.2
2023-03-23T00:55:04.226Z,10.2
2023-03-23T00:57:12.541Z,10.2
2023-03-23T00:59:03.492Z,10.3
2023-03-23T01:01:03.513Z,10.2
2023-03-23T01:03:04.060Z,10.2
2023-03-23T01:05:04.222Z,10.2
2023-03-23T01:07:03.614Z,10.3
2023-03-23T01:09:04.085Z,10.3
2023-03-23T01:11:11.354Z,10.3
2023-03-23T01:13:03.932Z,10.2
2023-03-23T01:15:04.062Z,10.3
2023-03-23T01:17:03.615Z,10.4
2023-03-23T01:19:03.503Z,10.1
2023-03-23T01:21:03.998Z,10.1
2023-03-23T01:23:03.570Z,10
2023-03-23T01:25:03.812Z,10.1
2023-03-23T01:27:04.755Z,10.1
2023-03-23T01:29:04.811Z,10.1
2023-03-23T01:31:03.511Z,10.2
2023-03-23T01:33:03.958Z,10.2
2023-03-23T01:35:03.517Z,10.1
2023-03-23T01:37:03.501Z,10
2023-03-23T01:39:04.100Z,10.2
2023-03-23T01:43:03.617Z,10.3
2023-03-23T01:45:04.101Z,10.3
2023-03-23T01:47:03.616Z,10.3
2023-03-23T01:49:03.618Z,10.3
2023-03-23T01:51:04.069Z,10.3
2023-03-23T01:53:03.594Z,10.3
2023-03-23T01:55:03.611Z,10.3
2023-03-23T01:57:04.118Z,10.4
2023-03-23T02:01:03.600Z,10.4
2023-03-23T02:03:04.114Z,10.3
2023-03-23T02:05:03.624Z,10.3
2023-03-23T02:07:03.894Z,10.3
2023-03-23T02:09:10.335Z,10.2
2023-03-23T02:11:03.992Z,10.1
2023-03-23T02:13:04.008Z,10
2023-03-23T02:15:03.988Z,10.1
2023-03-23T02:17:03.555Z,10.1
2023-03-23T02:19:03.596Z,10.1
2023-03-23T02:21:04.571Z,10.2
2023-03-23T02:23:03.543Z,10.3
2023-03-23T02:27:12.747Z,10
2023-03-23T02:29:04.003Z,10.1
2023-03-23T02:31:03.603Z,10.1
2023-03-23T02:33:04.031Z,10.1
2023-03-23T02:35:10.010Z,10
2023-03-23T02:37:06.820Z,10.3
2023-03-23T02:39:04.438Z,10.3
2023-03-23T02:41:03.500Z,10.2
2023-03-23T02:45:04.611Z,9.9
2023-03-23T02:47:03.513Z,9.9
2023-03-23T02:49:03.512Z,9.9
2023-03-23T02:51:04.007Z,10
2023-03-23T02:53:03.912Z,10.2
2023-03-23T02:55:04.988Z,10.1
2023-03-23T02:57:04.007Z,10.1
2023-03-23T02:59:03.507Z,10.2
2023-03-23T03:01:03.553Z,10.2
2023-03-23T03:03:04.175Z,10
2023-03-23T03:05:03.612Z,10.1
2023-03-23T03:09:05.460Z,10.2
2023-03-23T03:11:03.552Z,10.3
2023-03-23T03:13:03.511Z,10.2
2023-03-23T03:15:04.018Z,10.2
2023-03-23T03:17:03.963Z,10.1
2023-03-23T03:19:03.608Z,10.1
2023-03-23T03:21:04.102Z,10.1
2023-03-23T03:23:03.505Z,10.2
2023-03-23T03:25:16.905Z,10.2
2023-03-23T03:29:03.537Z,10.2
2023-03-23T03:31:03.527Z,10.2
2023-03-23T03:33:04.140Z,10.3
2023-03-23T03:35:04.015Z,10.3
2023-03-23T03:37:03.607Z,10.2
2023-03-23T03:39:04.443Z,10.3
2023-03-23T03:43:03.646Z,10.4
2023-03-23T03:45:03.999Z,10.4
2023-03-23T03:47:03.624Z,10.3
2023-03-23T03:49:03.624Z,10.3
2023-03-23T03:51:04.510Z,10.4
2023-03-23T03:53:04.231Z,10.3
2023-03-23T03:57:04.002Z,10.3
2023-03-23T03:59:21.229Z,10.3
2023-03-23T04:01:04.809Z,10.3
2023-03-23T04:03:04.438Z,10.1
2023-03-23T04:05:03.881Z,10.2
2023-03-23T04:07:03.916Z,10.2
2023-03-23T04:09:07.541Z,10.1
2023-03-23T04:13:03.571Z,10.2
2023-03-23T04:15:06.120Z,10.2
2023-03-23T04:17:03.664Z,10.3
2023-03-23T04:19:04.283Z,10.5
2023-03-23T04:21:04.559Z,10.6
2023-03-23T04:23:03.564Z,10.5
2023-03-23T04:25:03.551Z,10.6
2023-03-23T04:27:04.460Z,10.6
2023-03-23T04:29:03.540Z,10.6
2023-03-23T04:31:05.065Z,10.6
2023-03-23T04:33:04.089Z,10.6
2023-03-23T04:35:11.449Z,10.6
2023-03-23T04:37:03.612Z,10.9
2023-03-23T04:39:04.009Z,10.9
2023-03-23T04:41:03.565Z,10.9
2023-03-23T04:43:03.829Z,10.9
2023-03-23T04:45:04.417Z,11
2023-03-23T04:47:04.234Z,11.1
2023-03-23T04:49:03.573Z,11.1
2023-03-23T04:51:04.067Z,11.2
2023-03-23T04:53:03.619Z,11.3
2023-03-23T04:55:03.539Z,11.2
2023-03-23T04:57:04.765Z,11.3
2023-03-23T04:59:03.933Z,11.4
2023-03-23T05:01:03.641Z,11.4
2023-03-23T05:03:04.088Z,11.4
2023-03-23T05:05:03.559Z,11.4
2023-03-23T05:07:03.514Z,11.4
2023-03-23T05:09:03.992Z,11.5
2023-03-23T05:13:03.618Z,11.7
2023-03-23T05:15:03.982Z,11.7
2023-03-23T05:17:04.038Z,11.9
2023-03-23T05:19:03.523Z,11.9
2023-03-23T05:21:04.007Z,12
2023-03-23T05:23:03.992Z,11.9
2023-03-23T05:25:09.301Z,12
2023-03-23T05:27:03.993Z,12.1
2023-03-23T05:29:03.549Z,12.1
2023-03-23T05:31:03.516Z,12.1
2023-03-23T05:33:04.043Z,12.1
2023-03-23T05:35:03.544Z,12.2
2023-03-23T05:37:03.555Z,12.2
2023-03-23T05:39:04.015Z,12.1
2023-03-23T05:41:04.299Z,12.1
2023-03-23T05:43:03.533Z,12
2023-03-23T05:45:04.004Z,12.1
2023-03-23T05:47:03.514Z,12.1
2023-03-23T05:49:03.985Z,12.1
2023-03-23T05:51:04.094Z,12.1
2023-03-23T05:55:03.512Z,12.2
2023-03-23T05:59:03.574Z,12.2
2023-03-23T06:01:03.579Z,12.2
2023-03-23T06:03:03.975Z,12
2023-03-23T06:05:04.318Z,12
2023-03-23T06:07:03.541Z,11.9
2023-03-23T06:09:04.504Z,11.8
2023-03-23T06:11:03.918Z,11.7
2023-03-23T06:15:04.760Z,11.6
2023-03-23T06:19:04.021Z,11.6
2023-03-23T06:23:03.522Z,11.6
2023-03-23T06:25:03.629Z,11.6
2023-03-23T06:27:03.996Z,11.4
2023-03-23T06:29:03.630Z,11.3
2023-03-23T06:31:03.631Z,11.5
2023-03-23T06:33:04.596Z,11.5
2023-03-23T06:35:06.108Z,11.3
2023-03-23T06:37:04.268Z,11.4
2023-03-23T06:39:04.282Z,11.3
2023-03-23T06:41:04.118Z,11.4
2023-03-23T06:43:04.002Z,11.3
2023-03-23T06:45:04.147Z,11.3
2023-03-23T06:47:03.643Z,11.4
2023-03-23T06:49:03.541Z,11.3
2023-03-23T06:51:04.078Z,11.3
2023-03-23T06:53:03.530Z,11.4
2023-03-23T06:55:04.904Z,11.4
2023-03-23T06:57:04.074Z,11.5
2023-03-23T06:59:03.702Z,11.5
2023-03-23T07:03:04.825Z,11.7
2023-03-23T07:07:06.737Z,11.7
2023-03-23T07:09:04.134Z,11.8
2023-03-23T07:11:04.839Z,11.7
2023-03-23T07:13:07.372Z,11.9
2023-03-23T07:15:04.759Z,11.9
2023-03-23T07:17:03.562Z,12
2023-03-23T07:19:03.543Z,12
2023-03-23T07:21:04.014Z,12
2023-03-23T07:23:03.919Z,12.1
2023-03-23T07:25:03.547Z,12.3
2023-03-23T07:29:04.426Z,12.5
2023-03-23T07:31:05.327Z,12.7
2023-03-23T07:33:04.470Z,13.4
2023-03-23T07:35:03.587Z,13.9
2023-03-23T07:37:04.052Z,13.2
2023-03-23T07:39:04.127Z,13.2
2023-03-23T07:41:03.651Z,12.9
2023-03-23T07:43:03.549Z,12.9
2023-03-23T07:45:04.061Z,12.9
2023-03-23T07:47:03.525Z,13.1
2023-03-23T07:49:03.564Z,13.2
2023-03-23T07:51:04.041Z,13.2
2023-03-23T07:53:05.456Z,13.5
2023-03-23T07:55:03.566Z,13.6
2023-03-23T07:59:04.314Z,13.9
2023-03-23T08:01:06.355Z,14.3
2023-03-23T08:03:06.650Z,14.5
2023-03-23T08:05:06.416Z,14.6
2023-03-23T08:07:03.585Z,14.6
2023-03-23T08:09:04.068Z,14.6
2023-03-23T08:11:03.556Z,14.6
2023-03-23T08:13:03.551Z,14.6
2023-03-23T08:15:04.000Z,14.7
2023-03-23T08:17:03.536Z,14.7
2023-03-23T08:19:08.652Z,14.7
2023-03-23T08:23:06.368Z,14.8
2023-03-23T08:25:03.559Z,14.9
2023-03-23T08:27:04.406Z,14.9
2023-03-23T08:29:04.882Z,15
2023-03-23T08:31:04.437Z,15.1
2023-03-23T08:33:04.120Z,15.1
2023-03-23T08:37:04.081Z,15.1
2023-03-23T08:39:04.112Z,15.1
2023-03-23T08:41:04.297Z,15.1
2023-03-23T08:43:03.563Z,15.1
2023-03-23T08:45:04.024Z,15.1
2023-03-23T08:47:03.560Z,15.2
2023-03-23T08:49:03.554Z,15.2
2023-03-23T08:51:04.488Z,15.2
2023-03-23T08:53:03.879Z,15.3
2023-03-23T08:57:04.143Z,15.3
2023-03-23T08:59:03.676Z,15.3
2023-03-23T09:01:04.005Z,15.3
2023-03-23T09:03:04.128Z,15.4
2023-03-23T09:05:03.999Z,15.4
2023-03-23T09:07:03.671Z,15.5
2023-03-23T09:09:04.560Z,15.5
2023-03-23T09:11:04.853Z,15.5
2023-03-23T09:13:04.837Z,15.5
2023-03-23T09:15:04.038Z,15.5
2023-03-23T09:17:03.566Z,15.5
2023-03-23T09:19:03.586Z,15.5
2023-03-23T09:21:04.050Z,15.5
2023-03-23T09:23:03.997Z,15.5
2023-03-23T09:25:03.682Z,15.5
2023-03-23T09:27:04.057Z,15.5
2023-03-23T09:29:08.301Z,15.5
2023-03-23T09:31:04.301Z,15.5
2023-03-23T09:33:13.128Z,15.5
2023-03-23T09:35:04.840Z,15.5
2023-03-23T09:37:03.675Z,15.5
2023-03-23T09:39:04.561Z,15.5
2023-03-23T09:41:03.969Z,15.5
2023-03-23T09:43:03.562Z,15.5
2023-03-23T09:45:04.343Z,15.5
2023-03-23T09:47:03.549Z,15.5
2023-03-23T09:49:03.528Z,15.5
2023-03-23T09:51:04.023Z,15.6
2023-03-23T09:53:06.376Z,15.6
2023-03-23T09:55:03.645Z,15.6
2023-03-23T09:57:04.033Z,15.6
2023-03-23T09:59:04.007Z,15.6
2023-03-23T10:01:06.381Z,15.6
2023-03-23T10:03:04.045Z,15.6
2023-03-23T10:05:03.549Z,15.6
2023-03-23T10:07:03.540Z,15.7
2023-03-23T10:09:04.022Z,15.7
2023-03-23T10:13:06.352Z,15.7
2023-03-23T10:15:04.141Z,15.7
2023-03-23T10:17:03.702Z,15.7
2023-03-23T10:19:04.117Z,15.8
2023-03-23T10:21:04.089Z,15.8
2023-03-23T10:23:04.897Z,15.9
2023-03-23T10:25:03.648Z,15.9
2023-03-23T10:27:04.889Z,15.9
2023-03-23T10:29:04.028Z,15.9
2023-03-23T10:31:03.669Z,15.9
2023-03-23T10:33:04.150Z,15.9
2023-03-23T10:35:08.625Z,16
2023-03-23T10:37:04.817Z,16
2023-03-23T10:39:04.006Z,16
2023-03-23T10:41:03.988Z,16
2023-03-23T10:43:04.406Z,16
2023-03-23T10:45:04.112Z,16
2023-03-23T10:47:03.696Z,16
2023-03-23T10:49:08.325Z,16.1
2023-03-23T10:51:04.893Z,16.1
2023-03-23T10:53:04.617Z,16.1
2023-03-23T10:55:03.999Z,16.1
2023-03-23T10:57:04.924Z,16.1
2023-03-23T10:59:03.966Z,16.1
2023-03-23T11:01:04.122Z,16.1
2023-03-23T11:03:05.831Z,16.2
2023-03-23T11:05:09.364Z,16.2
2023-03-23T11:07:06.130Z,16.2
2023-03-23T11:09:04.061Z,16.2
2023-03-23T11:11:04.005Z,16.2
2023-03-23T11:13:06.172Z,16.2
2023-03-23T11:15:04.484Z,16.3
2023-03-23T11:17:10.411Z,16.3
2023-03-23T11:19:03.692Z,16.3
2023-03-23T11:21:04.051Z,16.3
2023-03-23T11:25:12.994Z,16.3
2023-03-23T11:27:04.434Z,16.3
2023-03-23T11:29:03.536Z,16.3
2023-03-23T11:31:03.590Z,16.3
2023-03-23T11:33:04.032Z,16.3
2023-03-23T11:35:13.995Z,16.4
2023-03-23T11:37:06.171Z,16.4
2023-03-23T11:39:04.303Z,16.4
2023-03-23T11:41:03.589Z,16.4
2023-03-23T11:43:04.862Z,16.4
2023-03-23T11:45:12.988Z,16.5
2023-03-23T11:47:03.558Z,16.5
2023-03-23T11:49:08.152Z,16.5
2023-03-23T11:51:04.253Z,16.5
2023-03-23T11:55:03.655Z,16.4
2023-03-23T11:57:04.040Z,16.4
2023-03-23T11:59:03.911Z,16.4
2023-03-23T12:01:09.347Z,16.4
2023-03-23T12:03:06.398Z,16.4
2023-03-23T12:05:03.899Z,16.4
2023-03-23T12:07:06.375Z,16.4
2023-03-23T12:09:04.538Z,16.4
2023-03-23T12:11:03.884Z,16.4
2023-03-23T12:17:04.254Z,16.4
2023-03-23T12:19:03.664Z,16.4
2023-03-23T12:21:04.054Z,16.4
2023-03-23T12:23:08.315Z,16.4
2023-03-23T12:25:03.693Z,16.4
2023-03-23T12:27:07.189Z,16.4
2023-03-23T12:29:03.551Z,16.5
2023-03-23T12:31:06.396Z,16.5
2023-03-23T12:33:04.077Z,16.5
2023-03-23T12:35:03.553Z,16.5
2023-03-23T12:37:04.020Z,16.6
2023-03-23T12:39:12.599Z,16.5
2023-03-23T12:43:03.568Z,16.5
2023-03-23T12:45:04.557Z,16.5
2023-03-23T12:47:03.555Z,16.5
2023-03-23T12:49:03.709Z,16.4
2023-03-23T12:51:04.185Z,16.5
2023-03-23T12:53:03.677Z,16.5
2023-03-23T12:59:03.884Z,16.5
2023-03-23T13:01:03.597Z,16.5
2023-03-23T13:03:04.872Z,16.5
2023-03-23T13:05:03.565Z,16.6
2023-03-23T13:09:04.848Z,16.6
2023-03-23T13:11:03.954Z,16.6
2023-03-23T13:13:03.696Z,16.6
2023-03-23T13:15:04.173Z,16.6
2023-03-23T13:17:03.691Z,16.5
2023-03-23T13:19:03.606Z,16.6
2023-03-23T13:21:04.132Z,16.6
2023-03-23T13:23:03.952Z,16.6
2023-03-23T13:25:13.113Z,16.6
2023-03-23T13:27:04.038Z,16.7
2023-03-23T13:29:03.577Z,16.8
2023-03-23T13:31:03.567Z,16.8
2023-03-23T13:33:04.158Z,16.8
2023-03-23T13:35:03.689Z,16.9
2023-03-23T13:37:03.560Z,16.9
2023-03-23T13:39:04.455Z,16.9
2023-03-23T13:41:03.611Z,16.9
2023-03-23T13:43:03.596Z,16.9
2023-03-23T13:45:04.901Z,16.9
2023-03-23T13:47:03.562Z,16.9
2023-03-23T13:49:11.106Z,16.9
2023-03-23T13:53:03.852Z,16.9
2023-03-23T13:55:03.588Z,16.9
2023-03-23T13:57:04.083Z,16.9
2023-03-23T13:59:06.399Z,16.8
2023-03-23T14:01:03.590Z,16.8
2023-03-23T14:03:04.107Z,16.8
2023-03-23T14:05:06.427Z,16.7
2023-03-23T14:07:03.586Z,16.7
2023-03-23T14:09:04.196Z,16.7
2023-03-23T14:11:03.705Z,16.7
2023-03-23T14:13:03.575Z,16.7
2023-03-23T14:15:04.406Z,16.7
2023-03-23T14:19:03.677Z,16.6
2023-03-23T14:21:04.597Z,16.6
2023-03-23T14:23:04.045Z,16.6
2023-03-23T14:25:04.245Z,16.6
2023-03-23T14:27:04.133Z,16.6
2023-03-23T14:29:03.596Z,16.6
2023-03-23T14:33:04.160Z,16.6
2023-03-23T14:37:03.684Z,16.6
2023-03-23T14:39:04.173Z,16.6
2023-03-23T14:41:03.668Z,16.6
2023-03-23T14:43:03.700Z,16.6
2023-03-23T14:45:04.075Z,16.5
2023-03-23T14:49:03.665Z,16.5
2023-03-23T14:51:04.059Z,16.4
2023-03-23T14:53:04.128Z,16.4
2023-03-23T14:57:04.063Z,16.4
2023-03-23T14:59:08.417Z,16.5
2023-03-23T15:01:03.954Z,16.4
2023-03-23T15:03:04.148Z,16.4
2023-03-23T15:05:07.858Z,16.4
2023-03-23T15:07:04.864Z,16.4
2023-03-23T15:09:04.159Z,16.4
2023-03-23T15:11:06.366Z,16.4
2023-03-23T15:13:03.681Z,16.4
2023-03-23T15:15:04.594Z,16.3
2023-03-23T15:17:03.575Z,16.4
2023-03-23T15:19:03.568Z,16.4
2023-03-23T15:21:04.043Z,16.3
2023-03-23T15:23:06.409Z,16.2
2023-03-23T15:25:04.393Z,16.3
2023-03-23T15:29:03.575Z,16.2
2023-03-23T15:31:03.577Z,16.3
2023-03-23T15:33:12.515Z,16.1
2023-03-23T15:35:04.493Z,16.1
2023-03-23T15:37:11.746Z,16.1
2023-03-23T15:39:04.904Z,16.1
2023-03-23T15:41:12.377Z,16.1
2023-03-23T15:43:06.705Z,16.1
2023-03-23T15:45:04.180Z,16
2023-03-23T15:47:12.161Z,16.1
2023-03-23T15:49:03.586Z,16
2023-03-23T15:51:12.767Z,16
2023-03-23T15:53:03.977Z,16
2023-03-23T15:55:06.681Z,16
2023-03-23T15:57:04.176Z,15.9
2023-03-23T15:59:03.702Z,15.8
2023-03-23T16:01:11.991Z,15.8
2023-03-23T16:03:06.484Z,15.8
2023-03-23T16:05:06.395Z,15.8
2023-03-23T16:07:03.688Z,15.8
2023-03-23T16:11:06.205Z,15.8
2023-03-23T16:13:03.680Z,15.7
2023-03-23T16:15:04.203Z,15.6
2023-03-23T16:17:06.438Z,15.6
2023-03-23T16:19:08.405Z,15.6
2023-03-23T16:21:04.854Z,15.5
2023-03-23T16:25:06.184Z,15.4
2023-03-23T16:27:12.982Z,15.3
2023-03-23T16:29:12.893Z,15.3
2023-03-23T16:31:03.768Z,15.3
2023-03-23T16:33:04.131Z,15.3
2023-03-23T16:35:03.693Z,15.3
2023-03-23T16:37:10.576Z,15.3
2023-03-23T16:39:04.181Z,15.2
2023-03-23T16:41:11.565Z,15.2
2023-03-23T16:43:08.241Z,15.1
2023-03-23T16:45:04.082Z,15.1
2023-03-23T16:47:12.617Z,15
2023-03-23T16:49:03.599Z,15.1
2023-03-23T16:51:04.530Z,15
2023-03-23T16:53:04.039Z,15
2023-03-23T17:01:03.584Z,14.9
2023-03-23T17:03:04.078Z,14.8
2023-03-23T17:05:03.782Z,14.9
2023-03-23T17:07:03.599Z,14.9
2023-03-23T17:09:04.859Z,14.8
2023-03-23T17:11:03.605Z,14.9
2023-03-23T17:13:03.600Z,14.8
2023-03-23T17:15:04.244Z,14.9
2023-03-23T17:17:03.713Z,14.8
2023-03-23T17:19:03.699Z,14.8
2023-03-23T17:21:04.237Z,14.7
2023-03-23T17:23:03.607Z,14.7
2023-03-23T17:25:03.606Z,14.7
2023-03-23T17:27:04.075Z,14.6
2023-03-23T17:29:03.602Z,14.6
2023-03-23T17:31:03.630Z,14.5
2023-03-23T17:33:04.604Z,14.5
2023-03-23T17:35:03.614Z,14.5
2023-03-23T17:37:03.582Z,14.5
2023-03-23T17:39:04.871Z,14.4
2023-03-23T17:41:03.605Z,14.5
2023-03-23T17:45:04.899Z,14.3
2023-03-23T17:47:04.257Z,14.3
2023-03-23T17:49:03.993Z,14.3
2023-03-23T17:51:04.729Z,14.3
2023-03-23T17:53:03.623Z,14.3
2023-03-23T17:55:04.065Z,14.3
2023-03-23T17:57:04.267Z,14.3
2023-03-23T17:59:03.726Z,14.3
2023-03-23T18:01:04.090Z,14.2
2023-03-23T18:03:04.191Z,14.2
2023-03-23T18:05:04.045Z,14.1
2023-03-23T18:09:04.156Z,14.1
2023-03-23T18:11:04.087Z,14.1
2023-03-23T18:13:05.057Z,14.1
2023-03-23T18:15:04.106Z,14.2
2023-03-23T18:17:03.626Z,14.1
2023-03-23T18:19:03.603Z,14.1
2023-03-23T18:21:04.571Z,14.1
2023-03-23T18:23:03.588Z,14.1
2023-03-23T18:25:03.622Z,14
2023-03-23T18:27:04.085Z,14
2023-03-23T18:29:03.588Z,14
2023-03-23T18:31:03.596Z,14
2023-03-23T18:33:04.561Z,13.9
2023-03-23T18:35:03.609Z,13.9
2023-03-23T18:37:03.627Z,14
2023-03-23T18:39:04.483Z,13.9
2023-03-23T18:41:03.621Z,13.9
2023-03-23T18:43:03.626Z,14
2023-03-23T18:45:04.444Z,13.9
2023-03-23T18:47:03.612Z,14
2023-03-23T18:51:04.654Z,13.9
2023-03-23T18:53:03.609Z,13.9
2023-03-23T18:55:04.050Z,13.9
2023-03-23T18:57:04.540Z,13.8
2023-03-23T18:59:03.615Z,13.9
2023-03-23T19:01:03.599Z,13.7
2023-03-23T19:03:04.157Z,13.8
2023-03-23T19:07:03.601Z,13.7
2023-03-23T19:09:04.062Z,13.7
2023-03-23T19:11:03.666Z,13.7
2023-03-23T19:13:04.363Z,13.6
2023-03-23T19:15:04.645Z,13.6
2023-03-23T19:17:03.721Z,13.6
2023-03-23T19:19:03.601Z,13.4
2023-03-23T19:23:04.071Z,13.4
2023-03-23T19:25:03.613Z,13.4
2023-03-23T19:27:04.112Z,13.4
2023-03-23T19:29:25.079Z,13.4
2023-03-23T19:31:03.627Z,13.3
2023-03-23T19:33:04.121Z,13.4
2023-03-23T19:35:03.639Z,13.4
2023-03-23T19:39:04.133Z,13.3
2023-03-23T19:41:05.502Z,13.2
2023-03-23T19:43:05.730Z,13.2
2023-03-23T19:45:04.071Z,13.3
2023-03-23T19:47:03.697Z,13.3
2023-03-23T19:49:04.361Z,13.3
2023-03-23T19:53:04.576Z,13.3
2023-03-23T19:55:04.584Z,13.3
2023-03-23T19:57:04.215Z,13.4
2023-03-23T19:59:11.236Z,13.3
2023-03-23T20:01:03.684Z,13.3
2023-03-23T20:03:04.469Z,13.3
2023-03-23T20:05:03.672Z,13.3
2023-03-23T20:07:07.607Z,13.3
2023-03-23T20:09:05.138Z,13.3
2023-03-23T20:11:03.590Z,13.3
2023-03-23T20:13:03.644Z,13.4
2023-03-23T20:15:04.141Z,13.4
2023-03-23T20:17:05.568Z,13.4
2023-03-23T20:21:04.284Z,13.4
2023-03-23T20:23:11.405Z,13.5
2023-03-23T20:25:03.630Z,13.5
2023-03-23T20:27:05.300Z,13.5
2023-03-23T20:29:03.630Z,13.5
2023-03-23T20:31:16.299Z,13.5
2023-03-23T20:33:04.208Z,13.6
2023-03-23T20:35:04.016Z,13.5
2023-03-23T20:37:03.697Z,13.4
2023-03-23T20:39:04.186Z,13.5
2023-03-23T20:41:04.194Z,13.5
2023-03-23T20:43:03.608Z,13.5
2023-03-23T20:45:04.528Z,13.4
2023-03-23T20:47:03.658Z,13.5
2023-03-23T20:49:03.626Z,13.5
2023-03-23T20:51:05.848Z,13.5
2023-03-23T20:53:04.355Z,13.5
2023-03-23T20:55:03.723Z,13.4
2023-03-23T20:57:04.232Z,13.4
2023-03-23T20:59:03.743Z,13.3
2023-03-23T21:01:04.035Z,13.3
2023-03-23T21:05:03.604Z,13.2
2023-03-23T21:09:04.090Z,13.3
2023-03-23T21:11:03.759Z,13.2
2023-03-23T21:13:03.725Z,13.2
2023-03-23T21:15:04.182Z,13.2
2023-03-23T21:17:03.993Z,13.1
2023-03-23T21:19:03.727Z,13.1
2023-03-23T21:21:04.613Z,13.2
2023-03-23T21:23:04.037Z,13.2
2023-03-23T21:27:04.169Z,13.2
2023-03-23T21:29:03.766Z,13.3
2023-03-23T21:31:04.106Z,13.3
2023-03-23T21:33:04.475Z,13.2
2023-03-23T21:35:03.638Z,13.2
2023-03-23T21:37:04.064Z,13.2
2023-03-23T21:39:04.655Z,13.1
2023-03-23T21:41:03.621Z,13.2
2023-03-23T21:43:03.604Z,13.1
2023-03-23T21:45:04.473Z,13.1
2023-03-23T21:47:03.624Z,13
2023-03-23T21:49:03.624Z,13.1
2023-03-23T21:51:04.866Z,13
2023-03-23T21:53:03.627Z,13
2023-03-23T21:55:03.626Z,12.9
2023-03-23T21:57:04.285Z,12.9
2023-03-23T21:59:04.104Z,12.9
2023-03-23T22:01:04.069Z,12.9
2023-03-23T22:03:04.241Z,12.9
2023-03-23T22:05:05.017Z,12.9
2023-03-23T22:07:03.591Z,12.9
2023-03-23T22:09:04.109Z,12.9
2023-03-23T22:11:03.592Z,12.8
2023-03-23T22:13:03.630Z,12.9
2023-03-23T22:15:04.091Z,12.9
2023-03-23T22:17:03.596Z,12.8
2023-03-23T22:19:03.651Z,12.7
2023-03-23T22:21:04.853Z,12.8
2023-03-23T22:25:03.722Z,12.8
2023-03-23T22:27:04.110Z,12.7
2023-03-23T22:29:04.923Z,12.6
2023-03-23T22:31:03.735Z,12.5
2023-03-23T22:33:04.939Z,12.5
2023-03-23T22:35:04.028Z,12.6
2023-03-23T22:37:03.596Z,12.5
2023-03-23T22:39:04.124Z,12.5
2023-03-23T22:41:04.296Z,12.5
2023-03-23T22:43:03.757Z,12.6
2023-03-23T22:45:04.566Z,12.7
2023-03-23T22:47:03.627Z,12.6
2023-03-23T22:49:03.614Z,12.7
2023-03-23T22:51:04.083Z,12.7
2023-03-23T22:53:03.634Z,12.6
2023-03-23T22:55:03.635Z,12.6
2023-03-23T22:57:04.104Z,12.7
2023-03-23T22:59:04.119Z,12.7
2023-03-23T23:01:03.874Z,12.6
2023-03-23T23:03:04.621Z,12.6
2023-03-23T23:05:04.084Z,12.6
2023-03-23T23:07:12.693Z,12.6
2023-03-23T23:11:03.625Z,12.5
2023-03-23T23:13:06.210Z,12.5
2023-03-23T23:15:04.478Z,12.4
2023-03-23T23:21:04.303Z,12.2
2023-03-23T23:23:03.723Z,12.2
2023-03-23T23:25:04.072Z,12.2
2023-03-23T23:29:03.762Z,12.4
2023-03-23T23:31:03.646Z,12.3
2023-03-23T23:33:04.174Z,12.3
2023-03-23T23:37:04.931Z,12.3
2023-03-23T23:39:06.459Z,12.3
2023-03-23T23:41:06.231Z,12.4
2023-03-23T23:43:06.414Z,12.4
2023-03-23T23:45:04.215Z,12.4
2023-03-23T23:47:03.732Z,12.4
2023-03-23T23:49:09.789Z,12.4
2023-03-23T23:51:04.126Z,12.4
2023-03-23T23:53:06.460Z,12.4
2023-03-23T23:55:04.942Z,12.4
2023-03-23T23:57:06.287Z,12.4
2023-03-23T23:59:04.936Z,12.5
